sensor_id;sensor_type;location;lat;lon;timestamp;pressure;altitude;pressure_sealevel;temperature;humidity
19789;BME280;10054;59.332;18.244;2024-03-23T00:52:44;98926.72;;;3.54;100.00
19789;BME280;10054;59.332;18.244;2024-03-23T00:55:13;98918.25;;;3.50;100.00
19789;BME280;10054;59.332;18.244;2024-03-23T00:57:42;98925.33;;;3.48;100.00
19789;BME280;10054;59.332;18.244;2024-03-23T01:00:12;98932.30;;;3.48;100.00
19789;BME280;10054;59.332;18.244;2024-03-23T01:02:41;98928.11;;;3.45;100.00
19789;BME280;10054;59.332;18.244;2024-03-23T01:05:10;98931.28;;;3.43;100.00
19789;BME280;10054;59.332;18.244;2024-03-23T01:07:39;98934.06;;;3.40;100.00
19789;BME280;10054;59.332;18.244;2024-03-23T01:10:08;98929.78;;;3.39;100.00
19789;BME280;10054;59.332;18.244;2024-03-23T01:12:37;98929.78;;;3.39;100.00
19789;BME280;10054;59.332;18.244;2024-03-23T01:15:06;98933.79;;;3.38;100.00
19789;BME280;10054;59.332;18.244;2024-03-23T01:17:35;98931.37;;;3.35;100.00
19789;BME280;10054;59.332;18.244;2024-03-23T01:20:04;98941.51;;;3.32;100.00
19789;BME280;10054;59.332;18.244;2024-03-23T01:22:33;98940.30;;;3.30;100.00
19789;BME280;10054;59.332;18.244;2024-03-23T01:25:02;98933.59;;;3.26;100.00
19789;BME280;10054;59.332;18.244;2024-03-23T01:27:31;98932.84;;;3.24;100.00
19789;BME280;10054;59.332;18.244;2024-03-23T01:30:00;98938.05;;;3.24;100.00
19789;BME280;10054;59.332;18.244;2024-03-23T01:32:29;98938.61;;;3.22;100.00
19789;BME280;10054;59.332;18.244;2024-03-23T01:34:57;98935.16;;;3.22;100.00
19789;BME280;10054;59.332;18.244;2024-03-23T01:37:26;98935.34;;;3.19;100.00
19789;BME280;10054;59.332;18.244;2024-03-23T01:39:55;98938.97;;;3.16;100.00
19789;BME280;10054;59.332;18.244;2024-03-23T01:42:24;98935.53;;;3.16;100.00
19789;BME280;10054;59.332;18.244;2024-03-23T01:44:53;98939.16;;;3.13;100.00
19789;BME280;10054;59.332;18.244;2024-03-23T01:47:21;98944.45;;;3.12;100.00
19789;BME280;10054;59.332;18.244;2024-03-23T01:49:50;98945.47;;;3.09;100.00
19789;BME280;10054;59.332;18.244;2024-03-23T01:52:19;98948.25;;;3.06;100.00
19789;BME280;10054;59.332;18.244;2024-03-23T01:54:48;98947.88;;;3.05;100.00
19789;BME280;10054;59.332;18.244;2024-03-23T01:57:19;98940.06;;;3.05;100.00
19789;BME280;10054;59.332;18.244;2024-03-23T01:59:51;98944.53;;;3.03;100.00
19789;BME280;10054;59.332;18.244;2024-03-23T02:02:22;98942.47;;;3.01;100.00
19789;BME280;10054;59.332;18.244;2024-03-23T02:04:51;98943.03;;;2.99;100.00
19789;BME280;10054;59.332;18.244;2024-03-23T02:07:19;98948.33;;;2.97;100.00
19789;BME280;10054;59.332;18.244;2024-03-23T02:09:48;98952.73;;;2.97;100.00
19789;BME280;10054;59.332;18.244;2024-03-23T02:12:17;98942.31;;;2.97;100.00
19789;BME280;10054;59.332;18.244;2024-03-23T02:14:46;98944.70;;;3.00;100.00
19789;BME280;10054;59.332;18.244;2024-03-23T02:17:15;98950.38;;;3.00;100.00
19789;BME280;10054;59.332;18.244;2024-03-23T02:19:44;98946.22;;;2.97;100.00
19789;BME280;10054;59.332;18.244;2024-03-23T02:22:14;98944.26;;;2.93;100.00
19789;BME280;10054;59.332;18.244;2024-03-23T02:24:44;98943.13;;;2.90;100.00
19789;BME280;10054;59.332;18.244;2024-03-23T02:27:12;98950.57;;;2.89;100.00
19789;BME280;10054;59.332;18.244;2024-03-23T02:29:41;98949.81;;;2.87;100.00
19789;BME280;10054;59.332;18.244;2024-03-23T02:32:10;98942.64;;;2.84;100.00
19789;BME280;10054;59.332;18.244;2024-03-23T02:34:39;98940.13;;;2.82;100.00
19789;BME280;10054;59.332;18.244;2024-03-23T02:37:11;98939.66;;;2.83;100.00
19789;BME280;10054;59.332;18.244;2024-03-23T02:39:40;98939.29;;;2.82;100.00
19789;BME280;10054;59.332;18.244;2024-03-23T02:42:09;98948.41;;;2.82;100.00
19789;BME280;10054;59.332;18.244;2024-03-23T02:44:38;98943.28;;;2.80;100.00
19789;BME280;10054;59.332;18.244;2024-03-23T02:47:07;98946.35;;;2.80;100.00
19789;BME280;10054;59.332;18.244;2024-03-23T02:49:36;98943.38;;;2.79;100.00
19789;BME280;10054;59.332;18.244;2024-03-23T02:52:05;98934.44;;;2.76;100.00
19789;BME280;10054;59.332;18.244;2024-03-23T02:54:33;98939.73;;;2.74;100.00
19789;BME280;10054;59.332;18.244;2024-03-23T02:57:02;98941.13;;;2.73;100.00
19789;BME280;10054;59.332;18.244;2024-03-23T02:59:32;98942.59;;;2.70;100.00
19789;BME280;10054;59.332;18.244;2024-03-23T03:02:01;98947.80;;;2.70;100.00
19789;BME280;10054;59.332;18.244;2024-03-23T03:04:31;98938.78;;;2.68;100.00
19789;BME280;10054;59.332;18.244;2024-03-23T03:07:00;98940.55;;;2.68;100.00
19789;BME280;10054;59.332;18.244;2024-03-23T03:09:29;98941.01;;;2.67;100.00
19789;BME280;10054;59.332;18.244;2024-03-23T03:11:58;98942.39;;;2.66;100.00
19789;BME280;10054;59.332;18.244;2024-03-23T03:14:27;98943.41;;;2.63;100.00
19789;BME280;10054;59.332;18.244;2024-03-23T03:16:55;98934.94;;;2.59;100.00
19789;BME280;10054;59.332;18.244;2024-03-23T03:19:24;98937.62;;;2.58;100.00
19789;BME280;10054;59.332;18.244;2024-03-23T03:21:53;98940.31;;;2.56;100.00
19789;BME280;10054;59.332;18.244;2024-03-23T03:24:22;98946.94;;;2.62;100.00
19789;BME280;10054;59.332;18.244;2024-03-23T03:26:51;98934.21;;;2.64;100.00
19789;BME280;10054;59.332;18.244;2024-03-23T03:29:20;98941.27;;;2.62;100.00
19789;BME280;10054;59.332;18.244;2024-03-23T03:31:48;98933.34;;;2.57;100.00
19789;BME280;10054;59.332;18.244;2024-03-23T03:34:19;98929.78;;;2.51;100.00
19789;BME280;10054;59.332;18.244;2024-03-23T03:36:47;98940.75;;;2.49;100.00
19789;BME280;10054;59.332;18.244;2024-03-23T03:39:16;98935.54;;;2.49;100.00
19789;BME280;10054;59.332;18.244;2024-03-23T03:41:45;98940.38;;;2.48;100.00
19789;BME280;10054;59.332;18.244;2024-03-23T03:44:13;98938.02;;;2.43;100.00
19789;BME280;10054;59.332;18.244;2024-03-23T03:46:42;98937.73;;;2.41;100.00
19789;BME280;10054;59.332;18.244;2024-03-23T03:49:11;98938.20;;;2.40;100.00
19789;BME280;10054;59.332;18.244;2024-03-23T03:51:40;98942.65;;;2.38;100.00
19789;BME280;10054;59.332;18.244;2024-03-23T03:54:08;98943.20;;;2.36;100.00
19789;BME280;10054;59.332;18.244;2024-03-23T03:56:37;98936.77;;;2.35;100.00
19789;BME280;10054;59.332;18.244;2024-03-23T03:59:06;98944.29;;;2.32;100.00
19789;BME280;10054;59.332;18.244;2024-03-23T04:01:34;98947.35;;;2.31;100.00
19789;BME280;10054;59.332;18.244;2024-03-23T04:04:03;98947.06;;;2.29;100.00
19789;BME280;10054;59.332;18.244;2024-03-23T04:06:32;98936.73;;;2.27;100.00
19789;BME280;10054;59.332;18.244;2024-03-23T04:09:00;98945.93;;;2.26;100.00
19789;BME280;10054;59.332;18.244;2024-03-23T04:11:29;98949.83;;;2.26;100.00
19789;BME280;10054;59.332;18.244;2024-03-23T04:13:58;98941.84;;;2.22;100.00
19789;BME280;10054;59.332;18.244;2024-03-23T04:16:33;98953.44;;;2.23;100.00
19789;BME280;10054;59.332;18.244;2024-03-23T04:19:01;98948.81;;;2.21;100.00
19789;BME280;10054;59.332;18.244;2024-03-23T04:21:30;98953.27;;;2.19;100.00
19789;BME280;10054;59.332;18.244;2024-03-23T04:23:58;98957.55;;;2.20;100.00
19789;BME280;10054;59.332;18.244;2024-03-23T04:26:27;98952.42;;;2.19;100.00
19789;BME280;10054;59.332;18.244;2024-03-23T04:28:56;98952.89;;;2.18;100.00
19789;BME280;10054;59.332;18.244;2024-03-23T04:31:24;98955.57;;;2.17;100.00
19789;BME280;10054;59.332;18.244;2024-03-23T04:33:53;98951.97;;;2.19;100.00
19789;BME280;10054;59.332;18.244;2024-03-23T04:36:22;98965.44;;;2.26;100.00
19789;BME280;10054;59.332;18.244;2024-03-23T04:38:51;98955.95;;;2.25;100.00
19789;BME280;10054;59.332;18.244;2024-03-23T04:41:20;98958.30;;;2.22;100.00
19789;BME280;10054;59.332;18.244;2024-03-23T04:43:48;98951.59;;;2.18;100.00
19789;BME280;10054;59.332;18.244;2024-03-23T04:46:17;98955.48;;;2.18;100.00
19789;BME280;10054;59.332;18.244;2024-03-23T04:48:46;98948.77;;;2.14;100.00
19789;BME280;10054;59.332;18.244;2024-03-23T04:51:25;98956.12;;;2.15;100.00
19789;BME280;10054;59.332;18.244;2024-03-23T04:53:55;98958.72;;;2.15;100.00
19789;BME280;10054;59.332;18.244;2024-03-23T04:56:24;98967.82;;;2.15;100.00
19789;BME280;10054;59.332;18.244;2024-03-23T04:58:52;98957.34;;;2.16;100.00
19789;BME280;10054;59.332;18.244;2024-03-23T05:01:21;98961.16;;;2.18;100.00
19789;BME280;10054;59.332;18.244;2024-03-23T05:03:51;98952.42;;;2.19;100.00
19789;BME280;10054;59.332;18.244;2024-03-23T05:06:20;98954.19;;;2.18;100.00
19789;BME280;10054;59.332;18.244;2024-03-23T05:08:49;98954.86;;;2.22;100.00
19789;BME280;10054;59.332;18.244;2024-03-23T05:11:17;98951.30;;;2.23;100.00
19789;BME280;10054;59.332;18.244;2024-03-23T05:13:48;98956.88;;;2.24;100.00
19789;BME280;10054;59.332;18.244;2024-03-23T05:16:16;98953.65;;;2.27;100.00
19789;BME280;10054;59.332;18.244;2024-03-23T05:18:45;98955.63;;;2.31;100.00
19789;BME280;10054;59.332;18.244;2024-03-23T05:21:14;98962.25;;;2.37;100.00
19789;BME280;10054;59.332;18.244;2024-03-23T05:23:43;98963.20;;;2.43;100.00
19789;BME280;10054;59.332;18.244;2024-03-23T05:26:12;98960.73;;;2.48;100.00
19789;BME280;10054;59.332;18.244;2024-03-23T05:28:40;98958.41;;;2.51;100.00
19789;BME280;10054;59.332;18.244;2024-03-23T05:31:09;98964.12;;;2.57;100.00
19789;BME280;10054;59.332;18.244;2024-03-23T05:33:38;98966.38;;;2.63;100.00
19789;BME280;10054;59.332;18.244;2024-03-23T05:36:07;98958.68;;;2.69;100.00
19789;BME280;10054;59.332;18.244;2024-03-23T05:38:37;98963.08;;;2.76;100.00
19789;BME280;10054;59.332;18.244;2024-03-23T05:41:06;98957.55;;;2.89;100.00
19789;BME280;10054;59.332;18.244;2024-03-23T05:43:35;98959.70;;;2.96;100.00
19789;BME280;10054;59.332;18.244;2024-03-23T05:46:04;98958.28;;;2.98;100.00
19789;BME280;10054;59.332;18.244;2024-03-23T05:48:33;98963.31;;;3.01;100.00
19789;BME280;10054;59.332;18.244;2024-03-23T05:51:02;98964.53;;;3.03;100.00
19789;BME280;10054;59.332;18.244;2024-03-23T05:53:31;98965.37;;;3.03;100.00
19789;BME280;10054;59.332;18.244;2024-03-23T05:56:04;98962.95;;;3.07;100.00
19789;BME280;10054;59.332;18.244;2024-03-23T05:58:33;98956.64;;;3.11;100.00
19789;BME280;10054;59.332;18.244;2024-03-23T06:01:02;98952.09;;;3.15;100.00
19789;BME280;10054;59.332;18.244;2024-03-23T06:03:31;98955.73;;;3.19;100.00
19789;BME280;10054;59.332;18.244;2024-03-23T06:06:00;98950.25;;;3.24;100.00
19789;BME280;10054;59.332;18.244;2024-03-23T06:08:29;98958.81;;;3.26;100.00
19789;BME280;10054;59.332;18.244;2024-03-23T06:10:58;98953.42;;;3.29;100.00
19789;BME280;10054;59.332;18.244;2024-03-23T06:13:26;98953.70;;;3.32;100.00
19789;BME280;10054;59.332;18.244;2024-03-23T06:15:57;98951.28;;;3.36;100.00
19789;BME280;10054;59.332;18.244;2024-03-23T06:18:26;98955.85;;;3.39;100.00
19789;BME280;10054;59.332;18.244;2024-03-23T06:20:55;98958.19;;;3.44;100.00
19789;BME280;10054;59.332;18.244;2024-03-23T06:23:24;98965.36;;;3.47;100.00
19789;BME280;10054;59.332;18.244;2024-03-23T06:25:53;98962.94;;;3.51;100.00
19789;BME280;10054;59.332;18.244;2024-03-23T06:28:23;98967.88;;;3.56;100.00
19789;BME280;10054;59.332;18.244;2024-03-23T06:30:51;98965.83;;;3.61;100.00
19789;BME280;10054;59.332;18.244;2024-03-23T06:33:20;98967.60;;;3.68;100.00
19789;BME280;10054;59.332;18.244;2024-03-23T06:35:52;98965.43;;;3.74;100.00
19789;BME280;10054;59.332;18.244;2024-03-23T06:38:21;98968.31;;;3.77;100.00
19789;BME280;10054;59.332;18.244;2024-03-23T06:40:50;98969.98;;;3.85;100.00
19789;BME280;10054;59.332;18.244;2024-03-23T06:43:20;98970.45;;;3.91;100.00
19789;BME280;10054;59.332;18.244;2024-03-23T06:45:56;98968.77;;;3.98;100.00
19789;BME280;10054;59.332;18.244;2024-03-23T06:48:25;98973.42;;;4.07;100.00
19789;BME280;10054;59.332;18.244;2024-03-23T06:50:57;98969.87;;;4.15;100.00
19789;BME280;10054;59.332;18.244;2024-03-23T06:53:26;98977.49;;;4.25;100.00
19789;BME280;10054;59.332;18.244;2024-03-23T06:55:55;98972.26;;;4.32;100.00
19789;BME280;10054;59.332;18.244;2024-03-23T06:58:24;98978.77;;;4.39;100.00
19789;BME280;10054;59.332;18.244;2024-03-23T07:00:53;98986.68;;;4.45;100.00
19789;BME280;10054;59.332;18.244;2024-03-23T07:03:22;98985.79;;;4.51;100.00
19789;BME280;10054;59.332;18.244;2024-03-23T07:05:51;98990.45;;;4.53;100.00
19789;BME280;10054;59.332;18.244;2024-03-23T07:08:20;98994.09;;;4.51;100.00
19789;BME280;10054;59.332;18.244;2024-03-23T07:10:50;98991.30;;;4.47;100.00
19789;BME280;10054;59.332;18.244;2024-03-23T07:13:18;98993.55;;;4.46;100.00
19789;BME280;10054;59.332;18.244;2024-03-23T07:15:52;98991.11;;;4.50;100.00
19789;BME280;10054;59.332;18.244;2024-03-23T07:18:22;98990.17;;;4.51;100.00
19789;BME280;10054;59.332;18.244;2024-03-23T07:20:55;98988.97;;;4.49;100.00
19789;BME280;10054;59.332;18.244;2024-03-23T07:23:25;98992.59;;;4.54;100.00
19789;BME280;10054;59.332;18.244;2024-03-23T07:25:58;98996.78;;;4.56;100.00
19789;BME280;10054;59.332;18.244;2024-03-23T07:28:27;98996.78;;;4.56;100.00
19789;BME280;10054;59.332;18.244;2024-03-23T07:31:08;98986.06;;;4.54;100.00
19789;BME280;10054;59.332;18.244;2024-03-23T07:33:50;98996.41;;;4.55;100.00
19789;BME280;10054;59.332;18.244;2024-03-23T07:36:15;98995.75;;;4.59;100.00
19789;BME280;10054;59.332;18.244;2024-03-23T07:38:44;98995.83;;;4.65;100.00
19789;BME280;10054;59.332;18.244;2024-03-23T07:41:15;98998.41;;;4.72;100.00
19789;BME280;10054;59.332;18.244;2024-03-23T07:43:48;99000.93;;;4.73;100.00
19789;BME280;10054;59.332;18.244;2024-03-23T07:46:18;98995.87;;;4.77;100.00
19789;BME280;10054;59.332;18.244;2024-03-23T07:48:47;98999.12;;;4.81;100.00
19789;BME280;10054;59.332;18.244;2024-03-23T07:51:24;98996.78;;;4.83;100.00
19789;BME280;10054;59.332;18.244;2024-03-23T07:53:49;98996.69;;;4.85;100.00
19789;BME280;10054;59.332;18.244;2024-03-23T07:56:19;99002.37;;;4.84;100.00
19789;BME280;10054;59.332;18.244;2024-03-23T07:58:49;98997.92;;;4.79;100.00
19789;BME280;10054;59.332;18.244;2024-03-23T08:01:18;99005.29;;;4.80;100.00
19789;BME280;10054;59.332;18.244;2024-03-23T08:03:47;98996.52;;;4.81;100.00
19789;BME280;10054;59.332;18.244;2024-03-23T08:06:18;99001.54;;;4.84;100.00
19789;BME280;10054;59.332;18.244;2024-03-23T08:08:54;98997.80;;;4.88;100.00
19789;BME280;10054;59.332;18.244;2024-03-23T08:11:24;98992.54;;;4.95;100.00
19789;BME280;10054;59.332;18.244;2024-03-23T08:13:53;98987.48;;;4.99;100.00
19789;BME280;10054;59.332;18.244;2024-03-23T08:16:24;98992.20;;;5.07;100.00
19789;BME280;10054;59.332;18.244;2024-03-23T08:18:55;98988.52;;;5.16;100.00
19789;BME280;10054;59.332;18.244;2024-03-23T08:21:24;98992.36;;;5.23;100.00
19789;BME280;10054;59.332;18.244;2024-03-23T08:23:54;98990.75;;;5.28;100.00
19789;BME280;10054;59.332;18.244;2024-03-23T08:26:23;98997.72;;;5.35;100.00
19789;BME280;10054;59.332;18.244;2024-03-23T08:28:52;98994.06;;;5.37;100.00
19789;BME280;10054;59.332;18.244;2024-03-23T08:31:20;98992.65;;;5.39;100.00
19789;BME280;10054;59.332;18.244;2024-03-23T08:33:49;98995.36;;;5.37;100.00
19789;BME280;10054;59.332;18.244;2024-03-23T08:36:18;98987.99;;;5.37;100.00
19789;BME280;10054;59.332;18.244;2024-03-23T08:38:47;98983.23;;;5.36;100.00
19789;BME280;10054;59.332;18.244;2024-03-23T08:41:17;98993.95;;;5.39;100.00
19789;BME280;10054;59.332;18.244;2024-03-23T08:43:46;98995.63;;;5.40;100.00
19789;BME280;10054;59.332;18.244;2024-03-23T08:46:16;98990.56;;;5.44;100.00
19789;BME280;10054;59.332;18.244;2024-03-23T08:48:46;98992.97;;;5.47;100.00
19789;BME280;10054;59.332;18.244;2024-03-23T08:51:17;98994.44;;;5.51;100.00
19789;BME280;10054;59.332;18.244;2024-03-23T08:53:46;98994.28;;;5.47;100.00
19789;BME280;10054;59.332;18.244;2024-03-23T08:56:15;98996.69;;;5.50;100.00
19789;BME280;10054;59.332;18.244;2024-03-23T08:58:44;98986.95;;;5.52;100.00
19789;BME280;10054;59.332;18.244;2024-03-23T09:01:13;98988.27;;;5.52;100.00
19789;BME280;10054;59.332;18.244;2024-03-23T09:03:43;98992.66;;;5.51;100.00
19789;BME280;10054;59.332;18.244;2024-03-23T09:06:13;98987.69;;;5.54;100.00
19789;BME280;10054;59.332;18.244;2024-03-23T09:08:42;98991.77;;;5.58;100.00
19789;BME280;10054;59.332;18.244;2024-03-23T09:11:12;98988.01;;;5.62;100.00
19789;BME280;10054;59.332;18.244;2024-03-23T09:13:42;98988.48;;;5.61;100.00
19789;BME280;10054;59.332;18.244;2024-03-23T09:16:10;98991.83;;;5.64;100.00
19789;BME280;10054;59.332;18.244;2024-03-23T09:18:40;98982.83;;;5.68;100.00
19789;BME280;10054;59.332;18.244;2024-03-23T09:21:12;98982.77;;;5.75;100.00
19789;BME280;10054;59.332;18.244;2024-03-23T09:23:45;98984.70;;;5.78;100.00
19789;BME280;10054;59.332;18.244;2024-03-23T09:26:15;98985.08;;;5.79;100.00
19789;BME280;10054;59.332;18.244;2024-03-23T09:28:43;98986.17;;;5.82;100.00
19789;BME280;10054;59.332;18.244;2024-03-23T09:31:12;98988.69;;;5.84;100.00
19789;BME280;10054;59.332;18.244;2024-03-23T09:33:42;98989.89;;;5.85;100.00
19789;BME280;10054;59.332;18.244;2024-03-23T09:36:11;98983.06;;;5.90;100.00
19789;BME280;10054;59.332;18.244;2024-03-23T09:38:41;98989.52;;;5.97;100.00
19789;BME280;10054;59.332;18.244;2024-03-23T09:41:10;98984.90;;;6.01;100.00
19789;BME280;10054;59.332;18.244;2024-03-23T09:43:40;98976.25;;;6.06;100.00
19789;BME280;10054;59.332;18.244;2024-03-23T09:46:09;98974.66;;;6.16;100.00
19789;BME280;10054;59.332;18.244;2024-03-23T09:48:37;98977.87;;;6.32;100.00
19789;BME280;10054;59.332;18.244;2024-03-23T09:51:06;98976.52;;;6.45;100.00
19789;BME280;10054;59.332;18.244;2024-03-23T09:53:37;98979.42;;;6.53;100.00
19789;BME280;10054;59.332;18.244;2024-03-23T09:56:08;98980.91;;;6.63;100.00
19789;BME280;10054;59.332;18.244;2024-03-23T09:58:36;98976.75;;;6.71;100.00
19789;BME280;10054;59.332;18.244;2024-03-23T10:01:06;98972.97;;;6.75;100.00
19789;BME280;10054;59.332;18.244;2024-03-23T10:03:47;98975.27;;;6.85;100.00
19789;BME280;10054;59.332;18.244;2024-03-23T10:06:07;98979.37;;;6.95;100.00
19789;BME280;10054;59.332;18.244;2024-03-23T10:08:36;98968.56;;;7.05;100.00
19789;BME280;10054;59.332;18.244;2024-03-23T10:11:15;98971.34;;;7.15;100.00
19789;BME280;10054;59.332;18.244;2024-03-23T10:13:45;98972.67;;;7.20;100.00
19789;BME280;10054;59.332;18.244;2024-03-23T10:16:23;98966.13;;;7.26;100.00
19789;BME280;10054;59.332;18.244;2024-03-23T10:18:54;98962.08;;;7.28;100.00
19789;BME280;10054;59.332;18.244;2024-03-23T10:21:22;98965.06;;;7.29;100.00
19789;BME280;10054;59.332;18.244;2024-03-23T10:23:51;98966.86;;;7.34;100.00
19789;BME280;10054;59.332;18.244;2024-03-23T10:26:24;98965.20;;;7.38;100.00
19789;BME280;10054;59.332;18.244;2024-03-23T10:28:57;98968.07;;;7.41;100.00
19789;BME280;10054;59.332;18.244;2024-03-23T10:31:33;98967.94;;;7.37;100.00
19789;BME280;10054;59.332;18.244;2024-03-23T10:34:03;98969.14;;;7.38;100.00
19789;BME280;10054;59.332;18.244;2024-03-23T10:36:32;98968.43;;;7.42;100.00
19789;BME280;10054;59.332;18.244;2024-03-23T10:39:02;98969.95;;;7.44;100.00
19789;BME280;10054;59.332;18.244;2024-03-23T10:41:33;98967.95;;;7.42;100.00
19789;BME280;10054;59.332;18.244;2024-03-23T10:44:02;98972.34;;;7.47;100.00
19789;BME280;10054;59.332;18.244;2024-03-23T10:46:36;98966.88;;;7.56;100.00
19789;BME280;10054;59.332;18.244;2024-03-23T10:49:05;98964.37;;;7.60;100.00
19789;BME280;10054;59.332;18.244;2024-03-23T10:51:35;98965.56;;;7.62;100.00
19789;BME280;10054;59.332;18.244;2024-03-23T10:54:07;98965.45;;;7.63;100.00
19789;BME280;10054;59.332;18.244;2024-03-23T10:56:39;98957.58;;;7.63;100.00
19789;BME280;10054;59.332;18.244;2024-03-23T10:59:09;98965.56;;;7.62;100.00
19789;BME280;10054;59.332;18.244;2024-03-23T11:01:53;98961.39;;;7.59;100.00
19789;BME280;10054;59.332;18.244;2024-03-23T11:04:10;98962.47;;;7.62;100.00
19789;BME280;10054;59.332;18.244;2024-03-23T11:06:39;98957.11;;;7.69;100.00
19789;BME280;10054;59.332;18.244;2024-03-23T11:09:39;98957.11;;;7.75;100.00
19789;BME280;10054;59.332;18.244;2024-03-23T11:15:04;98962.48;;;7.84;100.00
19789;BME280;10054;59.332;18.244;2024-03-23T11:17:29;98967.26;;;7.85;98.53
19789;BME280;10054;59.332;18.244;2024-03-23T11:20:07;98960.45;;;7.82;97.20
19789;BME280;10054;59.332;18.244;2024-03-23T11:22:41;98960.81;;;7.78;98.03
19789;BME280;10054;59.332;18.244;2024-03-23T11:25:21;98956.52;;;7.77;97.68
19789;BME280;10054;59.332;18.244;2024-03-23T11:27:54;98960.93;;;7.82;98.10
19789;BME280;10054;59.332;18.244;2024-03-23T11:30:26;98958.19;;;7.89;97.69
19789;BME280;10054;59.332;18.244;2024-03-23T11:32:57;98953.53;;;8.04;98.46
19789;BME280;10054;59.332;18.244;2024-03-23T11:35:32;98950.66;;;8.12;93.06
19789;BME280;10054;59.332;18.244;2024-03-23T11:38:15;98948.83;;;8.18;93.83
19789;BME280;10054;59.332;18.244;2024-03-23T11:40:48;98946.08;;;8.25;95.04
19789;BME280;10054;59.332;18.244;2024-03-23T11:43:18;98947.64;;;8.34;93.61
19789;BME280;10054;59.332;18.244;2024-03-23T11:45:52;98939.74;;;8.28;91.25
19789;BME280;10054;59.332;18.244;2024-03-23T11:48:23;98943.22;;;8.17;91.54
19789;BME280;10054;59.332;18.244;2024-03-23T11:50:57;98946.36;;;8.11;92.53
19789;BME280;10054;59.332;18.244;2024-03-23T11:53:26;98945.77;;;8.02;91.52
19789;BME280;10054;59.332;18.244;2024-03-23T11:55:59;98943.39;;;7.94;91.25
19789;BME280;10054;59.332;18.244;2024-03-23T11:58:29;98941.13;;;7.89;91.94
19789;BME280;10054;59.332;18.244;2024-03-23T12:01:00;98940.05;;;7.86;91.02
19789;BME280;10054;59.332;18.244;2024-03-23T12:03:33;98936.59;;;7.80;89.20
19789;BME280;10054;59.332;18.244;2024-03-23T12:06:03;98936.23;;;7.84;92.37
19789;BME280;10054;59.332;18.244;2024-03-23T12:08:35;98933.72;;;8.00;91.92
19789;BME280;10054;59.332;18.244;2024-03-23T12:13:38;98934.16;;;8.33;90.59
19789;BME280;10054;59.332;18.244;2024-03-23T12:16:17;98930.88;;;8.51;90.35
19789;BME280;10054;59.332;18.244;2024-03-23T12:18:49;98931.08;;;8.65;88.40
19789;BME280;10054;59.332;18.244;2024-03-23T12:21:18;98936.42;;;8.75;88.02
19789;BME280;10054;59.332;18.244;2024-03-23T12:23:47;98940.92;;;8.84;88.39
19789;BME280;10054;59.332;18.244;2024-03-23T12:26:16;98938.27;;;8.89;87.90
19789;BME280;10054;59.332;18.244;2024-03-23T12:28:45;98930.26;;;8.91;88.85
19789;BME280;10054;59.332;18.244;2024-03-23T12:31:14;98927.19;;;9.01;89.53
19789;BME280;10054;59.332;18.244;2024-03-23T12:33:43;98931.56;;;9.12;89.45
19789;BME280;10054;59.332;18.244;2024-03-23T12:36:12;98929.00;;;9.21;88.77
19789;BME280;10054;59.332;18.244;2024-03-23T12:38:41;98926.56;;;9.30;86.81
19789;BME280;10054;59.332;18.244;2024-03-23T12:41:11;98920.59;;;9.28;85.82
19789;BME280;10054;59.332;18.244;2024-03-23T12:43:42;98922.67;;;9.18;85.95
19789;BME280;10054;59.332;18.244;2024-03-23T12:46:11;98925.97;;;9.05;85.76
19789;BME280;10054;59.332;18.244;2024-03-23T12:48:39;98929.20;;;8.88;85.11
19789;BME280;10054;59.332;18.244;2024-03-23T12:51:09;98926.63;;;8.71;86.32
19789;BME280;10054;59.332;18.244;2024-03-23T12:53:38;98924.19;;;8.53;88.24
19789;BME280;10054;59.332;18.244;2024-03-23T12:56:07;98932.84;;;8.33;90.18
19789;BME280;10054;59.332;18.244;2024-03-23T12:58:37;98924.88;;;8.12;94.53
19789;BME280;10054;59.332;18.244;2024-03-23T13:01:06;98924.88;;;8.01;97.32
19789;BME280;10054;59.332;18.244;2024-03-23T13:03:35;98927.64;;;7.88;99.31
19789;BME280;10054;59.332;18.244;2024-03-23T13:06:04;98923.23;;;7.72;100.00
19789;BME280;10054;59.332;18.244;2024-03-23T13:08:34;98919.64;;;7.62;100.00
19789;BME280;10054;59.332;18.244;2024-03-23T13:11:03;98916.66;;;7.55;100.00
19789;BME280;10054;59.332;18.244;2024-03-23T13:13:32;98912.48;;;7.47;100.00
19789;BME280;10054;59.332;18.244;2024-03-23T13:16:01;98919.53;;;7.41;100.00
19789;BME280;10054;59.332;18.244;2024-03-23T13:18:30;98920.25;;;7.37;100.00
19789;BME280;10054;59.332;18.244;2024-03-23T13:21:00;98918.56;;;7.31;100.00
19789;BME280;10054;59.332;18.244;2024-03-23T13:23:29;98914.04;;;7.33;100.00
19789;BME280;10054;59.332;18.244;2024-03-23T13:26:00;98909.04;;;7.41;100.00
19789;BME280;10054;59.332;18.244;2024-03-23T13:28:28;98911.76;;;7.45;100.00
19789;BME280;10054;59.332;18.244;2024-03-23T13:30:57;98914.65;;;7.42;100.00
19789;BME280;10054;59.332;18.244;2024-03-23T13:33:28;98919.63;;;7.45;100.00
19789;BME280;10054;59.332;18.244;2024-03-23T13:35:57;98918.67;;;7.46;100.00
19789;BME280;10054;59.332;18.244;2024-03-23T13:38:26;98913.67;;;7.48;100.00
19789;BME280;10054;59.332;18.244;2024-03-23T13:40:56;98915.46;;;7.53;100.00
19789;BME280;10054;59.332;18.244;2024-03-23T13:43:26;98909.38;;;7.58;100.00
19789;BME280;10054;59.332;18.244;2024-03-23T13:45:57;98907.72;;;7.63;100.00
19789;BME280;10054;59.332;18.244;2024-03-23T13:48:27;98911.17;;;7.69;100.00
19789;BME280;10054;59.332;18.244;2024-03-23T13:51:02;98911.66;;;7.69;97.31
19789;BME280;10054;59.332;18.244;2024-03-23T13:53:31;98923.58;;;7.62;97.25
19789;BME280;10054;59.332;18.244;2024-03-23T13:56:03;98918.56;;;7.53;98.05
19789;BME280;10054;59.332;18.244;2024-03-23T13:58:32;98924.06;;;7.39;98.70
19789;BME280;10054;59.332;18.244;2024-03-23T14:01:01;98931.31;;;7.24;99.67
19789;BME280;10054;59.332;18.244;2024-03-23T14:03:30;98931.28;;;7.13;100.00